Time;durP1;ratioP1;P1;durP2;ratioP2;P2;SDS_P1;SDS_P2;PMS_P1;PMS_P2;Temp;Humidity;BMP_temperature;BMP_pressure;BME280_temperature;BME280_humidity;BME280_pressure;Samples;Min_cycle;Max_cycle;Signal;HPM_P1;HPM_P2
2022/10/15 00:00:28;;;;;;;3.17;2.97;;;15.20;70.30;;;;;;5024260;28;20203;-52
2022/10/15 00:02:54;;;;;;;3.13;3.03;;;15.20;70.30;;;;;;5020933;28;20507;-53
2022/10/15 00:05:21;;;;;;;3.60;3.40;;;15.20;69.60;;;;;;5022370;28;20173;-53
2022/10/15 00:07:46;;;;;;;3.50;3.40;;;15.20;70.10;;;;;;5022815;28;20550;-53
2022/10/15 00:10:12;;;;;;;3.20;3.10;;;15.20;70.20;;;;;;5021068;28;20419;-53
2022/10/15 00:12:39;;;;;;;3.07;2.97;;;15.30;70.50;;;;;;5022395;28;20279;-51
2022/10/15 00:15:05;;;;;;;3.30;3.20;;;15.20;70.10;;;;;;5022114;28;20526;-51
2022/10/15 00:17:33;;;;;;;3.63;3.23;;;15.30;70.10;;;;;;5022589;28;20973;-54
2022/10/15 00:19:58;;;;;;;3.10;3.00;;;15.30;69.90;;;;;;5019728;28;20423;-52
2022/10/15 00:22:24;;;;;;;3.40;3.20;;;15.30;70.50;;;;;;5020981;28;20738;-52
2022/10/15 00:24:50;;;;;;;2.70;2.60;;;15.30;70.00;;;;;;5024678;28;20188;-52
2022/10/15 00:27:16;;;;;;;2.90;2.80;;;15.30;70.30;;;;;;5023527;28;20519;-53
2022/10/15 00:29:41;;;;;;;3.10;2.93;;;15.30;70.50;;;;;;5029049;28;20181;-51
2022/10/15 00:32:07;;;;;;;3.03;2.93;;;15.30;70.80;;;;;;5020012;28;20192;-52
2022/10/15 00:34:33;;;;;;;2.70;2.60;;;15.30;70.30;;;;;;5022782;28;20224;-53
2022/10/15 00:36:58;;;;;;;3.30;3.20;;;15.30;70.60;;;;;;5021727;28;20191;-54
2022/10/15 00:39:24;;;;;;;3.07;2.97;;;15.30;70.40;;;;;;5020009;28;20187;-53
2022/10/15 00:41:50;;;;;;;3.03;2.93;;;15.30;70.70;;;;;;5020998;28;20540;-52
2022/10/15 00:44:24;;;;;;;2.93;2.83;;;15.30;71.10;;;;;;5022908;28;20215;-54
2022/10/15 00:47:05;;;;;;;3.30;3.20;;;15.30;70.80;;;;;;5022048;28;20215;-53
2022/10/15 00:49:39;;;;;;;2.90;2.80;;;15.30;71.00;;;;;;5021443;28;20424;-51
2022/10/15 00:52:06;;;;;;;2.90;2.80;;;15.30;70.90;;;;;;5023077;28;20414;-52
2022/10/15 00:54:40;;;;;;;3.07;2.87;;;15.30;71.20;;;;;;5021092;28;20426;-54
2022/10/15 00:57:07;;;;;;;2.70;2.60;;;15.30;71.90;;;;;;5021279;28;20420;-52
2022/10/15 00:59:36;;;;;;;3.17;3.07;;;15.30;72.40;;;;;;5021466;28;20435;-53
2022/10/15 01:02:02;;;;;;;3.40;3.10;;;15.30;72.80;;;;;;5020890;28;20782;-52
2022/10/15 01:04:29;;;;;;;4.87;3.03;;;15.30;73.20;;;;;;5019851;28;21102;-53
2022/10/15 01:06:55;;;;;;;3.33;3.23;;;15.30;72.50;;;;;;5021397;28;20447;-52
2022/10/15 01:09:21;;;;;;;2.47;2.47;;;15.30;72.80;;;;;;5019324;28;20458;-49
2022/10/15 01:11:49;;;;;;;2.60;2.50;;;15.30;72.50;;;;;;5022320;28;20184;-52
2022/10/15 01:14:24;;;;;;;3.00;2.90;;;15.30;73.00;;;;;;5021333;28;20517;-51
2022/10/15 01:16:54;;;;;;;3.00;2.80;;;15.30;73.20;;;;;;5019723;28;20955;-52
2022/10/15 01:19:48;;;;;;;2.90;2.80;;;15.30;73.20;;;;;;5019885;28;20454;-52
2022/10/15 01:22:20;;;;;;;2.60;2.50;;;15.40;73.00;;;;;;5019106;28;20415;-52
2022/10/15 01:24:51;;;;;;;2.60;2.50;;;15.30;72.90;;;;;;5021196;28;20427;-59
2022/10/15 01:27:32;;;;;;;3.17;2.67;;;15.40;73.10;;;;;;5021906;28;20782;-59
2022/10/15 01:30:03;;;;;;;2.77;2.67;;;15.40;73.60;;;;;;5020813;28;20439;-59
2022/10/15 01:32:35;;;;;;;3.00;2.80;;;15.40;74.00;;;;;;5019481;28;20461;-59
2022/10/15 01:35:28;;;;;;;2.83;2.63;;;15.40;74.30;;;;;;5019365;28;20423;-60
2022/10/15 01:38:12;;;;;;;2.70;2.50;;;15.40;74.90;;;;;;5020062;28;20468;-59
2022/10/15 01:40:56;;;;;;;2.50;2.40;;;15.40;75.60;;;;;;5020820;28;20460;-59
2022/10/15 01:43:47;;;;;;;2.80;2.70;;;15.40;76.10;;;;;;5021444;28;20553;-60
2022/10/15 01:46:18;;;;;;;3.00;2.70;;;15.40;75.90;;;;;;5021164;28;20447;-59
2022/10/15 01:48:44;;;;;;;2.90;2.80;;;15.40;76.40;;;;;;5018296;28;20416;-59
2022/10/15 01:51:11;;;;;;;2.70;2.60;;;15.40;76.40;;;;;;5020823;28;20442;-51
2022/10/15 01:53:38;;;;;;;2.70;2.60;;;15.40;76.40;;;;;;5020842;28;20177;-52
2022/10/15 01:56:10;;;;;;;2.70;2.60;;;15.40;76.40;;;;;;5021892;28;20423;-54
2022/10/15 01:58:43;;;;;;;2.90;2.80;;;15.50;76.50;;;;;;5019575;28;20420;-54
2022/10/15 02:01:09;;;;;;;2.67;2.60;;;15.50;76.50;;;;;;5020312;28;20423;-52
2022/10/15 02:03:45;;;;;;;2.63;2.53;;;15.50;76.50;;;;;;5018997;28;20470;-49
2022/10/15 02:06:24;;;;;;;2.63;2.53;;;15.50;76.50;;;;;;5020211;28;20180;-59
2022/10/15 02:09:15;;;;;;;2.87;2.67;;;15.50;76.50;;;;;;5021102;28;20431;-59
2022/10/15 02:12:07;;;;;;;2.43;2.33;;;15.50;76.50;;;;;;5018844;28;20772;-58
2022/10/15 02:14:46;;;;;;;2.30;2.30;;;15.50;77.20;;;;;;5019692;28;20439;-58
2022/10/15 02:17:16;;;;;;;2.30;2.30;;;15.50;76.60;;;;;;5019860;28;20418;-58
2022/10/15 02:19:53;;;;;;;2.60;2.50;;;15.50;76.90;;;;;;5020325;28;20564;-58
2022/10/15 02:22:46;;;;;;;2.33;2.20;;;15.50;76.70;;;;;;5020659;28;20921;-58
2022/10/15 02:25:22;;;;;;;2.60;2.50;;;15.50;76.50;;;;;;5020531;28;20979;-52
2022/10/15 02:27:51;;;;;;;2.47;2.37;;;15.50;76.50;;;;;;5017967;28;20447;-53
2022/10/15 02:30:17;;;;;;;2.63;2.43;;;15.60;76.70;;;;;;5019683;28;20544;-52
2022/10/15 02:32:48;;;;;;;2.57;2.37;;;15.60;76.60;;;;;;5020880;28;20423;-53
2022/10/15 02:35:13;;;;;;;2.47;2.33;;;15.60;76.60;;;;;;5020280;28;20416;-50
2022/10/15 02:37:45;;;;;;;2.50;2.40;;;15.60;76.60;;;;;;5020235;28;20759;-51
2022/10/15 02:40:11;;;;;;;2.50;2.40;;;15.70;76.70;;;;;;5019698;28;20423;-51
2022/10/15 02:42:37;;;;;;;2.50;2.40;;;15.60;76.60;;;;;;5018384;28;21030;-49
2022/10/15 02:45:03;;;;;;;2.60;2.60;;;15.70;76.00;;;;;;5020609;28;20407;-53
2022/10/15 02:47:30;;;;;;;2.60;2.50;;;15.70;76.20;;;;;;5021001;28;20184;-51
2022/10/15 02:49:56;;;;;;;2.90;2.80;;;15.70;75.90;;;;;;5017476;28;20418;-51
2022/10/15 02:52:21;;;;;;;3.30;3.10;;;15.70;75.30;;;;;;5020576;28;20412;-59
2022/10/15 02:54:47;;;;;;;3.03;2.93;;;15.70;75.90;;;;;;5019096;28;20180;-59
2022/10/15 02:57:12;;;;;;;2.80;2.70;;;15.70;76.40;;;;;;5019739;28;20177;-59
2022/10/15 02:59:38;;;;;;;2.80;2.80;;;15.80;76.80;;;;;;5016693;28;20531;-59
2022/10/15 03:05:26;;;;;;;3.30;3.20;;;15.80;75.80;;;;;;5020988;28;20211;-52
2022/10/15 03:07:51;;;;;;;2.70;2.70;;;15.80;75.60;;;;;;5020600;28;20419;-52
2022/10/15 03:10:17;;;;;;;2.80;2.80;;;15.80;75.50;;;;;;5019330;28;20184;-52
2022/10/15 03:12:42;;;;;;;3.23;3.03;;;15.80;75.50;;;;;;5021147;28;20551;-53
2022/10/15 03:15:08;;;;;;;3.00;2.90;;;15.80;75.80;;;;;;5021481;28;20258;-52
2022/10/15 03:17:34;;;;;;;3.17;3.07;;;15.80;76.20;;;;;;5023738;28;20576;-54
2022/10/15 03:20:00;;;;;;;3.10;3.00;;;15.80;75.90;;;;;;5026887;28;20853;-53
2022/10/15 03:22:25;;;;;;;3.10;3.00;;;15.80;75.90;;;;;;5023285;28;20661;-53
2022/10/15 03:24:51;;;;;;;3.20;3.00;;;15.90;75.90;;;;;;5023023;28;20172;-51
2022/10/15 03:27:16;;;;;;;5.33;3.40;;;15.90;75.80;;;;;;5022871;28;20211;-54
2022/10/15 03:29:42;;;;;;;3.30;3.20;;;15.90;75.80;;;;;;5023254;28;20176;-53
2022/10/15 03:32:07;;;;;;;3.50;3.40;;;15.90;75.80;;;;;;5023255;28;20181;-59
2022/10/15 03:34:33;;;;;;;3.67;3.47;;;15.90;75.70;;;;;;5026700;28;20234;-59
2022/10/15 03:36:59;;;;;;;3.10;3.00;;;15.90;75.70;;;;;;5023486;28;20181;-58
2022/10/15 03:39:24;;;;;;;2.87;2.80;;;15.90;76.00;;;;;;5025706;28;20188;-60
2022/10/15 03:41:52;;;;;;;3.03;2.93;;;15.90;76.10;;;;;;5025742;28;20645;-59
2022/10/15 03:44:18;;;;;;;3.10;2.93;;;15.90;76.80;;;;;;5027099;28;20588;-59
2022/10/15 03:46:44;;;;;;;2.80;2.70;;;15.90;76.90;;;;;;5024327;28;20452;-59
2022/10/15 03:49:10;;;;;;;3.30;3.10;;;16.00;77.00;;;;;;5027775;28;20426;-59
2022/10/15 03:51:36;;;;;;;3.27;3.10;;;16.00;76.20;;;;;;5024916;28;20266;-59
2022/10/15 03:54:01;;;;;;;3.87;3.37;;;16.10;76.00;;;;;;5027645;28;21254;-59
2022/10/15 03:56:27;;;;;;;2.83;2.83;;;16.10;75.50;;;;;;5026538;28;20682;-59
2022/10/15 03:58:53;;;;;;;3.00;3.00;;;16.10;75.20;;;;;;5028599;28;20181;-59
2022/10/15 04:01:18;;;;;;;2.90;2.80;;;16.20;75.40;;;;;;5029020;28;20652;-59
2022/10/15 04:03:45;;;;;;;2.90;2.80;;;16.20;75.10;;;;;;5023988;28;20215;-59
2022/10/15 04:06:10;;;;;;;2.90;2.83;;;16.20;75.10;;;;;;5027383;28;20221;-59
2022/10/15 04:08:36;;;;;;;3.30;3.10;;;16.20;75.20;;;;;;5029477;28;20912;-59
2022/10/15 04:11:02;;;;;;;3.10;3.00;;;16.30;75.10;;;;;;5027606;28;20176;-59
2022/10/15 04:13:28;;;;;;;3.50;3.40;;;16.20;74.50;;;;;;5032409;28;20199;-58
2022/10/15 04:15:54;;;;;;;3.40;3.30;;;16.30;74.40;;;;;;5028382;28;20271;-59
2022/10/15 04:18:21;;;;;;;3.97;3.30;;;16.30;74.10;;;;;;5032097;28;20419;-58
2022/10/15 04:20:47;;;;;;;3.40;3.30;;;16.30;74.60;;;;;;5032156;28;20419;-58
2022/10/15 04:23:14;;;;;;;3.60;3.40;;;16.30;74.60;;;;;;5033161;28;20477;-58
2022/10/15 04:25:39;;;;;;;3.53;3.43;;;16.40;74.40;;;;;;5033414;28;20956;-59
2022/10/15 04:28:05;;;;;;;3.73;3.63;;;16.40;74.40;;;;;;5029598;28;20416;-59
2022/10/15 04:30:31;;;;;;;3.90;3.80;;;16.50;74.20;;;;;;5032426;28;20180;-51
2022/10/15 04:32:57;;;;;;;3.90;3.80;;;16.40;74.00;;;;;;5031671;28;20415;-53
2022/10/15 04:35:23;;;;;;;4.30;4.20;;;16.50;73.70;;;;;;5030882;28;20791;-50
2022/10/15 04:37:48;;;;;;;4.17;4.07;;;16.50;73.40;;;;;;5030658;28;20176;-51
2022/10/15 04:40:14;;;;;;;4.00;3.80;;;16.50;73.20;;;;;;5031337;28;20181;-50
2022/10/15 04:42:41;;;;;;;4.20;4.10;;;16.50;73.00;;;;;;5032315;28;20177;-50
2022/10/15 04:45:07;;;;;;;4.37;4.27;;;16.50;72.90;;;;;;5030311;28;20484;-53
2022/10/15 04:47:33;;;;;;;4.30;4.07;;;16.50;72.70;;;;;;5031547;28;20477;-54
2022/10/15 04:49:59;;;;;;;4.50;4.40;;;16.50;72.60;;;;;;5029503;28;20415;-54
2022/10/15 04:52:24;;;;;;;4.40;4.30;;;16.50;72.70;;;;;;5030940;28;20183;-54
2022/10/15 04:54:50;;;;;;;5.03;4.60;;;16.50;72.70;;;;;;5032034;28;20180;-54
2022/10/15 04:57:15;;;;;;;4.63;4.43;;;16.50;72.50;;;;;;5030689;28;20176;-52
2022/10/15 04:59:43;;;;;;;4.47;4.37;;;16.50;72.40;;;;;;5031177;28;20177;-54
2022/10/15 05:02:11;;;;;;;5.13;4.90;;;16.60;72.30;;;;;;5029907;28;20222;-51
2022/10/15 05:04:37;;;;;;;4.93;4.77;;;16.60;72.10;;;;;;5031285;28;20463;-53
2022/10/15 05:07:03;;;;;;;5.43;5.33;;;16.50;71.80;;;;;;5031293;28;20407;-54
2022/10/15 05:09:28;;;;;;;5.60;5.50;;;16.50;71.70;;;;;;5029431;28;20585;-54
2022/10/15 05:11:54;;;;;;;5.33;5.13;;;16.60;71.80;;;;;;5030106;28;20173;-55
2022/10/15 05:14:21;;;;;;;5.00;4.90;;;16.50;71.50;;;;;;5028803;28;20192;-56
2022/10/15 05:16:46;;;;;;;5.20;5.10;;;16.50;71.30;;;;;;5034992;28;20501;-56
2022/10/15 05:19:12;;;;;;;5.00;4.90;;;16.50;71.40;;;;;;5050152;28;20526;-57
2022/10/15 05:21:38;;;;;;;5.20;4.90;;;16.50;71.40;;;;;;5052350;28;20528;-56
2022/10/15 05:24:04;;;;;;;5.77;5.37;;;16.50;71.20;;;;;;5048040;28;20298;-56
2022/10/15 05:26:31;;;;;;;5.80;5.70;;;16.50;71.20;;;;;;5048715;28;20183;-57
2022/10/15 05:28:58;;;;;;;6.20;5.90;;;16.50;70.90;;;;;;5047889;28;20415;-55
2022/10/15 05:31:27;;;;;;;5.90;5.70;;;16.60;70.90;;;;;;5048979;28;20426;-56
2022/10/15 05:33:54;;;;;;;5.67;5.50;;;16.60;70.50;;;;;;5047524;28;21000;-56
2022/10/15 05:36:25;;;;;;;5.17;5.07;;;16.50;70.80;;;;;;5063199;28;20520;-56
2022/10/15 05:38:57;;;;;;;6.27;5.50;;;16.60;70.70;;;;;;5041326;28;20423;-56
2022/10/15 05:41:24;;;;;;;5.30;5.20;;;16.50;70.50;;;;;;5031733;28;20411;-57
2022/10/15 05:43:52;;;;;;;6.23;5.83;;;16.60;70.60;;;;;;5048853;28;20469;-56
2022/10/15 05:46:18;;;;;;;5.63;5.53;;;16.60;70.50;;;;;;5048852;28;20429;-56
2022/10/15 05:48:51;;;;;;;5.40;5.30;;;16.60;70.40;;;;;;5048813;28;20786;-55
2022/10/15 05:51:17;;;;;;;5.77;5.47;;;16.60;70.20;;;;;;5046796;28;20438;-56
2022/10/15 05:53:45;;;;;;;5.77;5.57;;;16.60;70.10;;;;;;5037488;28;20423;-56
2022/10/15 05:56:11;;;;;;;6.00;5.73;;;16.60;71.10;;;;;;5027420;28;20936;-56
2022/10/15 05:58:37;;;;;;;6.10;5.80;;;16.60;70.10;;;;;;5028986;28;20509;-55
2022/10/15 06:01:05;;;;;;;6.07;5.77;;;16.60;70.10;;;;;;5026952;28;20457;-58
2022/10/15 06:03:31;;;;;;;6.10;5.90;;;16.60;69.70;;;;;;5027558;28;20577;-55
2022/10/15 06:05:57;;;;;;;6.83;6.53;;;16.60;69.70;;;;;;5024181;28;20418;-55
2022/10/15 06:08:23;;;;;;;6.13;5.70;;;16.60;69.70;;;;;;5028809;28;20420;-55
2022/10/15 06:10:49;;;;;;;6.03;5.83;;;16.60;69.00;;;;;;5025076;28;20448;-55
2022/10/15 06:13:15;;;;;;;6.47;6.20;;;16.60;69.20;;;;;;5025724;28;20562;-55
2022/10/15 06:15:42;;;;;;;6.00;5.80;;;16.60;69.20;;;;;;5026309;28;20786;-59
2022/10/15 06:18:09;;;;;;;6.10;5.90;;;16.60;69.10;;;;;;5024867;28;20777;-60
2022/10/15 06:20:36;;;;;;;6.10;6.00;;;16.60;69.10;;;;;;5025369;28;20415;-60
2022/10/15 06:23:04;;;;;;;6.30;6.10;;;16.60;68.80;;;;;;5026231;28;20459;-55
2022/10/15 06:25:30;;;;;;;6.30;6.10;;;16.60;68.80;;;;;;5026485;28;20410;-53
2022/10/15 06:28:01;;;;;;;6.60;6.20;;;16.60;68.70;;;;;;5027771;28;20771;-60
2022/10/15 06:30:26;;;;;;;6.43;5.93;;;16.60;68.50;;;;;;5023181;28;20766;-60
2022/10/15 06:32:52;;;;;;;6.90;6.70;;;16.60;68.20;;;;;;5025037;28;20981;-53
2022/10/15 06:35:20;;;;;;;6.73;6.43;;;16.60;68.20;;;;;;5025897;28;20271;-54
2022/10/15 06:37:46;;;;;;;6.20;6.00;;;16.60;68.20;;;;;;5025680;28;20430;-54
2022/10/15 06:40:13;;;;;;;6.13;5.93;;;16.60;68.30;;;;;;5024370;28;20443;-54
2022/10/15 06:42:38;;;;;;;6.87;6.67;;;16.60;68.00;;;;;;5027242;28;20427;-54
2022/10/15 06:45:05;;;;;;;6.10;5.90;;;16.60;68.00;;;;;;5024616;28;20939;-53
2022/10/15 06:47:31;;;;;;;6.20;6.00;;;16.60;67.90;;;;;;5026503;28;20177;-52
2022/10/15 06:49:57;;;;;;;6.67;6.47;;;16.70;68.40;;;;;;5025113;28;20469;-53
2022/10/15 06:52:23;;;;;;;6.63;6.43;;;16.70;67.50;;;;;;5023713;28;20423;-53
2022/10/15 06:54:49;;;;;;;6.60;6.40;;;16.70;67.50;;;;;;5006583;28;20259;-55
2022/10/15 06:57:15;;;;;;;7.27;6.57;;;16.60;67.40;;;;;;5024190;28;20411;-54
2022/10/15 06:59:41;;;;;;;6.60;6.40;;;16.60;67.40;;;;;;5023503;28;20442;-54
2022/10/15 07:02:09;;;;;;;6.67;6.47;;;16.60;67.40;;;;;;5022937;28;20191;-52
2022/10/15 07:04:35;;;;;;;6.90;6.60;;;16.60;67.40;;;;;;5025182;28;20622;-54
2022/10/15 07:07:00;;;;;;;6.90;6.50;;;16.60;67.40;;;;;;5024111;28;20419;-52
2022/10/15 07:09:26;;;;;;;6.53;6.33;;;16.60;67.40;;;;;;5026861;28;20172;-54
2022/10/15 07:11:52;;;;;;;6.53;6.33;;;16.70;67.50;;;;;;5024402;28;20184;-55
2022/10/15 07:14:17;;;;;;;6.60;6.40;;;16.70;67.20;;;;;;5028092;28;20188;-54
2022/10/15 07:16:43;;;;;;;6.70;6.50;;;16.60;67.40;;;;;;5029976;28;20210;-54
2022/10/15 07:19:09;;;;;;;6.37;6.20;;;16.60;67.40;;;;;;5024911;28;20206;-54
2022/10/15 07:21:35;;;;;;;6.33;6.13;;;16.60;67.40;;;;;;5023641;28;20183;-55
2022/10/15 07:24:00;;;;;;;6.70;6.30;;;16.60;67.20;;;;;;5023639;28;20823;-52
2022/10/15 07:26:29;;;;;;;6.47;6.30;;;16.70;66.60;;;;;;5025436;28;20171;-54
2022/10/15 07:28:55;;;;;;;6.83;6.57;;;16.60;66.40;;;;;;5021957;28;20240;-54
2022/10/15 07:31:22;;;;;;;6.70;6.33;;;16.60;66.90;;;;;;5021049;28;20415;-59
2022/10/15 07:33:47;;;;;;;6.20;6.00;;;16.70;67.10;;;;;;5031391;28;20419;-59
2022/10/15 07:36:13;;;;;;;6.40;6.23;;;16.70;66.90;;;;;;5029831;28;20419;-59
2022/10/15 07:38:39;;;;;;;6.50;6.10;;;16.70;67.40;;;;;;5025142;28;20424;-59
2022/10/15 07:41:06;;;;;;;5.80;5.60;;;16.70;68.20;;;;;;5027982;28;20211;-59
2022/10/15 07:43:33;;;;;;;6.30;6.10;;;16.70;67.50;;;;;;5038860;28;20462;-59
2022/10/15 07:45:59;;;;;;;6.20;6.00;;;16.70;67.50;;;;;;5039697;28;20750;-55
2022/10/15 07:48:25;;;;;;;7.07;6.57;;;16.70;68.10;;;;;;5044203;28;20424;-54
2022/10/15 07:50:59;;;;;;;6.47;6.17;;;16.70;67.50;;;;;;5040860;28;20505;-59
2022/10/15 07:53:25;;;;;;;6.57;6.30;;;16.70;67.50;;;;;;5047078;28;20559;-59
2022/10/15 07:55:51;;;;;;;8.60;7.20;;;16.60;64.90;;;;;;5044440;28;20939;-59
2022/10/15 07:58:17;;;;;;;7.20;6.90;;;16.60;63.90;;;;;;5047861;28;20424;-59
2022/10/15 08:00:43;;;;;;;7.27;6.77;;;16.50;63.80;;;;;;5047551;28;20648;-59
2022/10/15 08:03:09;;;;;;;7.30;7.10;;;16.50;63.80;;;;;;5046243;28;20515;-59
2022/10/15 08:05:35;;;;;;;7.87;7.47;;;16.40;64.10;;;;;;5047667;28;20410;-59
2022/10/15 08:08:00;;;;;;;7.00;6.60;;;16.40;63.50;;;;;;5050093;28;20172;-59
2022/10/15 08:10:26;;;;;;;6.40;6.20;;;16.30;64.00;;;;;;5045539;28;20187;-59
2022/10/15 08:12:52;;;;;;;6.37;6.17;;;16.30;65.00;;;;;;5042956;28;20180;-59
2022/10/15 08:15:18;;;;;;;5.77;5.60;;;16.30;64.60;;;;;;5043897;28;20507;-59
2022/10/15 08:17:44;;;;;;;6.33;5.93;;;16.30;65.10;;;;;;5051529;28;20179;-58
2022/10/15 08:20:10;;;;;;;6.00;5.80;;;16.40;65.90;;;;;;5046508;28;20422;-58
2022/10/15 08:22:36;;;;;;;6.20;6.00;;;16.30;66.40;;;;;;5030110;28;20181;-59
2022/10/15 08:25:02;;;;;;;6.00;5.70;;;16.40;66.40;;;;;;5033242;28;20429;-58
2022/10/15 08:27:27;;;;;;;6.50;5.90;;;16.40;66.50;;;;;;5025499;28;20177;-58
2022/10/15 08:29:53;;;;;;;5.83;5.43;;;16.30;67.10;;;;;;5024135;28;20426;-58
2022/10/15 08:32:19;;;;;;;5.60;5.40;;;16.30;67.10;;;;;;5025624;28;20271;-59
2022/10/15 08:34:44;;;;;;;6.37;5.80;;;16.40;66.70;;;;;;5025548;28;20188;-59
2022/10/15 08:37:10;;;;;;;5.20;5.00;;;16.40;67.00;;;;;;5025678;28;20272;-58
2022/10/15 08:39:35;;;;;;;4.73;4.53;;;16.40;67.20;;;;;;5024714;28;20191;-60
2022/10/15 08:42:05;;;;;;;5.00;4.90;;;16.50;67.30;;;;;;5027692;28;20268;-59
2022/10/15 08:44:59;;;;;;;5.07;4.87;;;16.60;67.40;;;;;;5026541;28;20215;-58
2022/10/15 08:47:39;;;;;;;5.17;4.97;;;16.60;67.40;;;;;;4995352;28;20420;-58
2022/10/15 08:50:19;;;;;;;4.67;4.47;;;16.60;67.40;;;;;;5025779;28;20423;-58
2022/10/15 08:52:48;;;;;;;5.70;5.50;;;16.60;67.40;;;;;;5026108;28;20418;-58
2022/10/15 08:55:17;;;;;;;5.20;4.90;;;16.60;67.40;;;;;;5027242;28;20424;-59
2022/10/15 08:57:48;;;;;;;4.90;4.70;;;16.50;67.00;;;;;;5024696;28;20420;-58
2022/10/15 09:00:20;;;;;;;4.77;4.67;;;16.50;67.30;;;;;;5024900;28;20481;-58
2022/10/15 09:03:03;;;;;;;4.37;4.17;;;16.50;68.00;;;;;;5026623;28;20822;-58
2022/10/15 09:05:41;;;;;;;5.10;4.80;;;16.50;68.80;;;;;;5023513;28;20472;-58
2022/10/15 09:08:10;;;;;;;4.20;4.10;;;16.50;68.50;;;;;;5024689;28;20431;-58
2022/10/15 09:10:46;;;;;;;3.83;3.73;;;16.50;68.90;;;;;;5024804;28;20415;-58
2022/10/15 09:13:27;;;;;;;4.20;4.00;;;16.50;69.10;;;;;;5024058;28;20439;-59
2022/10/15 09:16:01;;;;;;;4.60;4.40;;;16.50;70.20;;;;;;5025066;28;20423;-52
2022/10/15 09:18:32;;;;;;;5.10;4.40;;;16.50;70.40;;;;;;5024792;28;20427;-54
2022/10/15 09:20:59;;;;;;;3.93;3.77;;;16.60;70.20;;;;;;5028217;28;20416;-52
2022/10/15 09:23:29;;;;;;;4.00;3.90;;;16.60;70.50;;;;;;5025974;28;20927;-54
2022/10/15 09:26:07;;;;;;;4.07;3.77;;;16.60;70.70;;;;;;5024260;28;20435;-52
2022/10/15 09:28:56;;;;;;;3.23;3.13;;;16.60;70.40;;;;;;5024636;28;20422;-54
2022/10/15 09:31:28;;;;;;;3.83;3.63;;;16.60;70.00;;;;;;5023928;28;20465;-54
2022/10/15 09:34:11;;;;;;;4.00;3.70;;;16.60;70.20;;;;;;5024914;28;20770;-54
2022/10/15 09:36:52;;;;;;;3.70;3.60;;;16.60;70.60;;;;;;5023068;28;20498;-52
2022/10/15 09:39:33;;;;;;;3.93;3.63;;;16.70;70.60;;;;;;5026275;28;20423;-52
2022/10/15 09:42:01;;;;;;;4.20;4.10;;;16.80;71.10;;;;;;5022891;28;20476;-53
2022/10/15 09:44:35;;;;;;;3.93;3.40;;;16.90;71.10;;;;;;5023822;28;20558;-54
2022/10/15 09:47:12;;;;;;;3.73;3.63;;;16.90;71.00;;;;;;5031996;28;20484;-53
2022/10/15 09:49:38;;;;;;;3.70;3.60;;;16.90;70.40;;;;;;5042140;28;20453;-52
2022/10/15 09:52:07;;;;;;;4.03;3.83;;;16.90;69.70;;;;;;5035615;28;20907;-56
2022/10/15 09:55:01;;;;;;;4.20;4.10;;;16.90;67.70;;;;;;5032791;28;20177;-56
2022/10/15 09:57:29;;;;;;;4.00;3.90;;;17.00;67.80;;;;;;5034417;28;20446;-57
2022/10/15 10:00:00;;;;;;;6.27;5.87;;;17.00;66.70;;;;;;5030823;28;20465;-56
2022/10/15 10:02:26;;;;;;;3.50;3.40;;;17.10;66.30;;;;;;5048641;28;20423;-56
2022/10/15 10:04:53;;;;;;;3.90;3.80;;;17.20;65.10;;;;;;5021629;28;20463;-53
2022/10/15 10:07:44;;;;;;;3.90;3.80;;;17.30;66.00;;;;;;5025761;28;20415;-52
2022/10/15 10:10:28;;;;;;;3.80;3.70;;;17.30;64.80;;;;;;5020186;28;20420;-54
2022/10/15 10:12:55;;;;;;;4.40;4.20;;;17.40;64.50;;;;;;5023458;28;20561;-51
2022/10/15 10:15:21;;;;;;;4.33;4.23;;;17.40;62.80;;;;;;5024398;28;20801;-54
2022/10/15 10:17:54;;;;;;;4.83;4.60;;;17.50;61.70;;;;;;5025009;28;20407;-53
2022/10/15 10:20:25;;;;;;;4.07;3.93;;;17.50;60.50;;;;;;5026493;28;20266;-57
2022/10/15 10:22:54;;;;;;;4.90;4.80;;;17.50;59.00;;;;;;5029165;28;20419;-55
2022/10/15 10:25:27;;;;;;;4.50;4.40;;;17.60;58.00;;;;;;5028186;28;20423;-56
2022/10/15 10:27:54;;;;;;;3.63;3.53;;;17.70;57.50;;;;;;5028241;28;20514;-56
2022/10/15 10:30:20;;;;;;;5.00;4.80;;;17.80;58.00;;;;;;5029967;28;20903;-57
2022/10/15 10:32:47;;;;;;;4.23;4.13;;;17.90;56.20;;;;;;5030018;28;20411;-55
2022/10/15 10:35:21;;;;;;;5.40;5.23;;;18.00;55.60;;;;;;5028543;28;20553;-55
2022/10/15 10:37:47;;;;;;;5.10;4.90;;;18.00;53.20;;;;;;5030066;28;20489;-54
2022/10/15 10:40:33;;;;;;;5.07;4.87;;;18.10;52.90;;;;;;5029157;28;20514;-53
2022/10/15 10:43:22;;;;;;;4.90;4.80;;;18.30;53.90;;;;;;5030361;28;20595;-53
2022/10/15 10:45:58;;;;;;;4.93;4.83;;;18.40;52.20;;;;;;5029283;28;20415;-54
2022/10/15 10:48:25;;;;;;;5.97;5.77;;;18.50;52.80;;;;;;5029170;28;20438;-52
2022/10/15 10:51:16;;;;;;;6.47;6.07;;;18.50;50.80;;;;;;5028767;28;20423;-54
2022/10/15 10:54:01;;;;;;;6.13;5.97;;;18.50;49.60;;;;;;5018293;28;20449;-53
2022/10/15 10:56:41;;;;;;;6.80;6.60;;;18.60;49.40;;;;;;5029006;28;21140;-54
2022/10/15 10:59:25;;;;;;;5.90;5.80;;;18.50;49.80;;;;;;5038225;28;21102;-55
2022/10/15 11:01:51;;;;;;;6.73;6.53;;;18.50;48.50;;;;;;5046428;28;20476;-54
2022/10/15 11:04:24;;;;;;;7.50;6.97;;;18.50;47.70;;;;;;5062160;28;20454;-54
2022/10/15 11:07:11;;;;;;;7.20;7.00;;;18.40;48.40;;;;;;5037662;28;20407;-55
2022/10/15 11:10:04;;;;;;;7.20;6.80;;;18.40;49.00;;;;;;5048721;28;21139;-59
2022/10/15 11:12:45;;;;;;;7.50;7.10;;;18.30;47.70;;;;;;5041981;28;20408;-59
2022/10/15 11:15:32;;;;;;;7.27;6.80;;;18.40;48.90;;;;;;5041839;28;20425;-59
2022/10/15 11:18:03;;;;;;;7.10;6.90;;;18.40;47.90;;;;;;5044554;28;20850;-59
2022/10/15 11:20:48;;;;;;;7.50;7.30;;;18.40;46.10;;;;;;5030587;28;20916;-55
2022/10/15 11:23:29;;;;;;;7.60;7.30;;;18.40;46.10;;;;;;5048046;28;20493;-53
2022/10/15 11:26:18;;;;;;;8.30;7.90;;;18.40;46.00;;;;;;5034341;28;20477;-56
2022/10/15 11:29:01;;;;;;;7.80;7.60;;;18.40;46.90;;;;;;4998567;28;20414;-56
2022/10/15 11:31:43;;;;;;;7.70;7.40;;;18.40;47.10;;;;;;5036208;28;20418;-56
2022/10/15 11:34:38;;;;;;;8.07;7.77;;;18.50;46.20;;;;;;5038814;28;20422;-56
2022/10/15 11:37:25;;;;;;;7.57;7.37;;;18.50;46.40;;;;;;5040969;28;20423;-54
2022/10/15 11:40:11;;;;;;;7.90;7.50;;;18.50;45.00;;;;;;5044151;28;20437;-55
2022/10/15 11:42:56;;;;;;;8.00;7.70;;;18.60;45.50;;;;;;5052656;28;20426;-55
2022/10/15 11:45:47;;;;;;;8.23;7.87;;;18.60;44.20;;;;;;5038253;28;20763;-53
2022/10/15 11:48:36;;;;;;;8.30;8.00;;;18.60;43.40;;;;;;5032341;28;20415;-55
2022/10/15 11:51:27;;;;;;;8.60;8.30;;;18.70;43.30;;;;;;5043588;28;20839;-56
2022/10/15 11:54:20;;;;;;;7.27;7.07;;;18.60;42.70;;;;;;5049995;28;20411;-55
2022/10/15 11:56:49;;;;;;;7.70;7.50;;;18.70;44.20;;;;;;5042454;28;20424;-55
2022/10/15 11:59:33;;;;;;;7.00;6.70;;;18.70;41.80;;;;;;5037729;28;20782;-54
2022/10/15 12:02:13;;;;;;;8.20;7.80;;;18.80;41.00;;;;;;5034342;28;20423;-55
2022/10/15 12:04:57;;;;;;;7.70;7.40;;;18.90;40.00;;;;;;5042476;28;20497;-55
2022/10/15 12:07:52;;;;;;;7.80;7.57;;;19.00;40.20;;;;;;5036524;28;20427;-54
2022/10/15 12:10:36;;;;;;;7.90;7.40;;;19.10;39.50;;;;;;5017464;28;20410;-55
2022/10/15 12:13:10;;;;;;;7.57;7.37;;;19.10;39.80;;;;;;5038216;28;20852;-54
2022/10/15 12:16:07;;;;;;;7.60;7.40;;;19.10;39.10;;;;;;5048932;28;20522;-54
2022/10/15 12:18:46;;;;;;;8.20;7.80;;;19.10;39.50;;;;;;5042507;28;20485;-55
2022/10/15 12:21:35;;;;;;;7.27;7.07;;;19.10;39.80;;;;;;5043732;28;20778;-55
2022/10/15 12:24:02;;;;;;;8.20;7.90;;;19.10;39.50;;;;;;5035174;28;20569;-54
2022/10/15 12:26:33;;;;;;;7.90;7.70;;;19.10;39.50;;;;;;5042829;28;20423;-55
2022/10/15 12:29:16;;;;;;;8.80;8.20;;;19.10;39.50;;;;;;5041999;28;20914;-53
2022/10/15 12:31:45;;;;;;;8.13;7.93;;;19.10;39.50;;;;;;5032288;28;20426;-55
2022/10/15 12:34:53;;;;;;;8.20;8.00;;;19.00;39.40;;;;;;5043600;28;20968;-54
2022/10/15 12:37:21;;;;;;;7.70;7.50;;;18.90;39.30;;;;;;4959161;28;20418;-53
2022/10/15 12:39:58;;;;;;;7.57;7.37;;;18.80;39.20;;;;;;5022373;28;20439;-53
2022/10/15 12:42:33;;;;;;;8.40;7.90;;;18.80;40.20;;;;;;5042544;28;20419;-53
2022/10/15 12:45:04;;;;;;;7.80;7.50;;;18.70;39.90;;;;;;5031612;28;20467;-55
2022/10/15 12:47:52;;;;;;;7.90;7.60;;;18.70;40.40;;;;;;5048281;28;20469;-55
2022/10/15 12:50:24;;;;;;;7.70;7.50;;;18.70;41.10;;;;;;5041567;28;20473;-54
2022/10/15 12:53:24;;;;;;;8.03;7.47;;;18.70;41.00;;;;;;5040075;28;20419;-54
2022/10/15 12:56:09;;;;;;;7.50;7.30;;;18.60;40.80;;;;;;5033504;28;20415;-53
2022/10/15 12:58:42;;;;;;;8.13;7.93;;;18.60;41.70;;;;;;5048926;28;20472;-54
2022/10/15 13:01:14;;;;;;;8.17;7.97;;;18.50;41.00;;;;;;5036469;28;20485;-53
2022/10/15 13:03:50;;;;;;;8.83;8.53;;;18.40;41.90;;;;;;5047043;28;20469;-55
2022/10/15 13:06:19;;;;;;;8.33;8.00;;;18.40;42.30;;;;;;5050324;28;20443;-53
2022/10/15 13:08:52;;;;;;;8.00;7.80;;;18.30;42.30;;;;;;5038130;28;20427;-54
2022/10/15 13:11:24;;;;;;;8.27;7.77;;;18.30;43.50;;;;;;5043872;28;20843;-53